Time;durP1;ratioP1;P1;durP2;ratioP2;P2;SDS_P1;SDS_P2;PMS_P1;PMS_P2;Temp;Humidity;BMP_temperature;BMP_pressure;BME280_temperature;BME280_humidity;BME280_pressure;Samples;Min_cycle;Max_cycle;Signal;HPM_P1;HPM_P2
2021/12/29 00:02:18;;;;;;;15.27;4.07;;;9.40;99.90;;;;;;5037317;28;20311;-88
2021/12/29 00:04:44;;;;;;;11.73;4.30;;;9.50;99.90;;;;;;5017522;28;20220;-87
2021/12/29 00:07:10;;;;;;;13.80;4.47;;;9.40;99.90;;;;;;5029359;28;20553;-91
2021/12/29 00:09:39;;;;;;;17.10;4.93;;;9.40;99.90;;;;;;5014249;28;20217;-88
2021/12/29 00:12:07;;;;;;;12.80;4.03;;;9.30;99.90;;;;;;5032173;28;20193;-87
2021/12/29 00:14:33;;;;;;;12.10;3.77;;;9.50;99.90;;;;;;5023593;28;20272;-87
2021/12/29 00:16:59;;;;;;;14.27;4.60;;;9.50;99.90;;;;;;5034702;28;20177;-87
2021/12/29 00:19:25;;;;;;;13.10;3.63;;;9.40;99.90;;;;;;5034055;28;20217;-87
2021/12/29 00:21:51;;;;;;;11.33;3.90;;;9.40;99.90;;;;;;5028497;28;20205;-87
2021/12/29 00:24:17;;;;;;;14.17;4.07;;;9.30;99.90;;;;;;5023287;28;20244;-87
2021/12/29 00:26:43;;;;;;;17.13;4.20;;;9.30;99.90;;;;;;5029418;28;20200;-87
2021/12/29 00:29:08;;;;;;;11.03;3.83;;;9.20;99.90;;;;;;5027086;28;20221;-87
2021/12/29 00:31:34;;;;;;;12.30;3.83;;;9.30;99.90;;;;;;5031285;28;20236;-87
2021/12/29 00:34:00;;;;;;;11.43;5.00;;;9.20;99.90;;;;;;5027547;28;20549;-87
2021/12/29 00:36:26;;;;;;;12.30;3.67;;;9.30;99.90;;;;;;5026877;28;20239;-88
2021/12/29 00:38:53;;;;;;;9.30;3.17;;;9.30;99.90;;;;;;5019901;28;20247;-89
2021/12/29 00:41:19;;;;;;;8.03;3.87;;;9.30;99.90;;;;;;5033436;28;20327;-89
2021/12/29 00:43:46;;;;;;;12.50;3.50;;;9.20;99.90;;;;;;5030936;28;20217;-88
2021/12/29 00:46:14;;;;;;;12.70;3.40;;;9.40;99.90;;;;;;5028709;28;20700;-88
2021/12/29 00:48:43;;;;;;;6.10;3.13;;;9.30;99.90;;;;;;5033979;28;20181;-88
2021/12/29 00:51:09;;;;;;;11.73;4.10;;;9.30;99.90;;;;;;5032886;28;20193;-88
2021/12/29 00:53:35;;;;;;;10.03;3.67;;;9.30;99.90;;;;;;5031349;28;20197;-88
2021/12/29 00:56:02;;;;;;;11.50;3.10;;;9.40;99.90;;;;;;5021305;28;20213;-88
2021/12/29 00:58:29;;;;;;;8.70;3.53;;;9.40;99.90;;;;;;5031918;28;20674;-89
2021/12/29 01:00:55;;;;;;;11.67;4.30;;;9.40;99.90;;;;;;5027014;28;20221;-88
2021/12/29 01:03:21;;;;;;;12.40;3.60;;;9.40;99.90;;;;;;5031626;28;20238;-88
2021/12/29 01:05:47;;;;;;;9.03;3.00;;;9.30;99.90;;;;;;5033084;28;20272;-88
2021/12/29 01:08:13;;;;;;;9.47;3.00;;;9.40;99.90;;;;;;5028313;28;20200;-89
2021/12/29 01:10:41;;;;;;;9.57;3.60;;;9.40;99.90;;;;;;5030924;28;20231;-89
2021/12/29 01:13:10;;;;;;;7.77;3.47;;;9.30;99.90;;;;;;5045891;28;20220;-91
2021/12/29 01:18:26;;;;;;;9.67;3.60;;;9.20;99.90;;;;;;5027316;28;20618;-89
2021/12/29 01:20:52;;;;;;;11.23;3.63;;;9.20;99.90;;;;;;5032964;28;20211;-90
2021/12/29 01:23:26;;;;;;;7.53;2.93;;;9.20;99.90;;;;;;5051921;28;20217;-91
2021/12/29 01:25:52;;;;;;;11.20;3.53;;;9.20;99.90;;;;;;5041519;28;20263;-88
2021/12/29 01:28:18;;;;;;;9.03;3.40;;;9.10;99.90;;;;;;5032030;28;20189;-88
2021/12/29 01:30:45;;;;;;;11.47;3.20;;;9.20;99.90;;;;;;5019595;28;20219;-88
2021/12/29 01:33:11;;;;;;;11.33;3.13;;;9.20;99.90;;;;;;5030216;28;20177;-88
2021/12/29 01:35:39;;;;;;;10.27;3.00;;;9.20;99.90;;;;;;5025988;28;20240;-88
2021/12/29 01:38:06;;;;;;;9.97;3.17;;;9.30;99.90;;;;;;5024122;28;20185;-89
2021/12/29 01:40:35;;;;;;;6.97;3.47;;;9.30;99.90;;;;;;5031738;28;20208;-88
2021/12/29 01:43:05;;;;;;;10.50;3.30;;;9.30;99.90;;;;;;5027894;28;20198;-88
2021/12/29 01:45:32;;;;;;;9.73;2.90;;;9.20;99.90;;;;;;5024092;28;20259;-89
2021/12/29 01:48:00;;;;;;;7.73;2.57;;;9.20;99.90;;;;;;5026269;28;20250;-88
2021/12/29 01:50:25;;;;;;;8.07;3.77;;;9.20;99.90;;;;;;5026610;28;20245;-89
2021/12/29 01:52:56;;;;;;;7.60;2.90;;;9.30;99.90;;;;;;5031940;28;20193;-89
2021/12/29 01:55:27;;;;;;;8.67;2.67;;;9.30;99.90;;;;;;5025608;28;20201;-89
2021/12/29 01:57:54;;;;;;;7.03;2.60;;;9.30;99.90;;;;;;5032500;28;20277;-89
2021/12/29 02:00:23;;;;;;;6.20;2.40;;;9.30;99.90;;;;;;5023794;28;20217;-89
2021/12/29 02:02:49;;;;;;;7.30;2.93;;;9.20;99.90;;;;;;5021924;28;20256;-89
2021/12/29 02:05:15;;;;;;;7.90;3.03;;;9.20;99.90;;;;;;5023699;28;20284;-88
2021/12/29 02:07:42;;;;;;;10.40;3.83;;;9.20;99.90;;;;;;5025006;28;20193;-88
2021/12/29 02:10:09;;;;;;;10.23;3.30;;;9.20;99.90;;;;;;5033921;28;20711;-89
2021/12/29 02:12:36;;;;;;;7.97;2.90;;;9.20;99.90;;;;;;5031956;28;20652;-88
2021/12/29 02:15:04;;;;;;;8.53;2.80;;;9.30;99.90;;;;;;5023357;28;20212;-88
2021/12/29 02:17:30;;;;;;;7.23;3.10;;;9.10;99.90;;;;;;5030630;28;20197;-89
2021/12/29 02:20:01;;;;;;;7.23;2.70;;;9.20;99.90;;;;;;5022767;28;20212;-88
2021/12/29 02:22:43;;;;;;;9.20;2.83;;;9.20;99.90;;;;;;5032096;28;20252;-88
2021/12/29 02:27:53;;;;;;;8.90;3.33;;;9.20;99.90;;;;;;5028281;28;20192;-88
2021/12/29 02:30:25;;;;;;;8.17;3.00;;;9.20;99.90;;;;;;5020648;28;20291;-88
2021/12/29 02:32:57;;;;;;;8.53;3.10;;;9.20;99.90;;;;;;5018645;28;20222;-89
2021/12/29 02:35:24;;;;;;;8.00;2.83;;;9.10;99.90;;;;;;5024313;28;20713;-90
2021/12/29 02:37:49;;;;;;;7.83;3.17;;;9.10;99.90;;;;;;5005715;28;20268;-88
2021/12/29 02:40:15;;;;;;;11.23;3.07;;;9.20;99.90;;;;;;5024131;28;20291;-88
2021/12/29 02:42:42;;;;;;;11.30;2.80;;;9.30;99.90;;;;;;5002940;28;20197;-88
2021/12/29 02:45:15;;;;;;;11.13;3.13;;;9.20;99.90;;;;;;5024604;28;20190;-91
2021/12/29 02:47:42;;;;;;;10.00;2.80;;;9.20;99.90;;;;;;5023593;28;20216;-88
2021/12/29 02:50:09;;;;;;;6.20;2.60;;;9.20;99.90;;;;;;5030177;28;20211;-90
2021/12/29 02:52:35;;;;;;;6.60;2.70;;;9.30;99.90;;;;;;5031587;28;20254;-88
2021/12/29 02:55:01;;;;;;;6.13;2.80;;;9.20;99.90;;;;;;5050405;28;20270;-89
2021/12/29 02:57:26;;;;;;;7.40;2.50;;;9.30;99.90;;;;;;5052616;28;20216;-89
2021/12/29 02:59:52;;;;;;;8.97;3.60;;;9.30;99.90;;;;;;5033861;28;20221;-88
2021/12/29 03:02:18;;;;;;;6.03;2.60;;;9.20;99.90;;;;;;5038288;28;20197;-89
2021/12/29 03:04:44;;;;;;;4.73;2.37;;;9.10;99.90;;;;;;5027016;28;20193;-88
2021/12/29 03:07:10;;;;;;;8.17;3.20;;;9.20;99.90;;;;;;5024470;28;20213;-89
2021/12/29 03:09:35;;;;;;;4.73;2.80;;;9.10;99.90;;;;;;5024722;28;20225;-89
2021/12/29 03:12:01;;;;;;;7.33;2.53;;;9.20;99.90;;;;;;5024806;28;20228;-89
2021/12/29 03:14:27;;;;;;;6.90;2.50;;;9.10;99.90;;;;;;5026715;28;20225;-88
2021/12/29 03:16:53;;;;;;;4.73;2.40;;;9.10;99.90;;;;;;5024484;28;20217;-89
2021/12/29 03:19:19;;;;;;;5.77;2.33;;;9.10;99.90;;;;;;5028013;28;20217;-89
2021/12/29 03:21:45;;;;;;;7.10;2.40;;;9.10;99.90;;;;;;5031892;28;20185;-88
2021/12/29 03:24:14;;;;;;;6.90;1.90;;;9.00;99.90;;;;;;5027500;28;20200;-88
2021/12/29 03:26:40;;;;;;;4.93;2.23;;;9.10;99.90;;;;;;5031222;28;20215;-88
2021/12/29 03:29:06;;;;;;;4.43;2.20;;;9.00;99.90;;;;;;5029559;28;20217;-88
2021/12/29 03:31:36;;;;;;;6.67;1.73;;;9.00;99.90;;;;;;5022847;28;20189;-88
2021/12/29 03:34:02;;;;;;;4.83;2.47;;;9.00;99.90;;;;;;5026718;28;20591;-89
2021/12/29 03:36:28;;;;;;;3.87;2.00;;;9.00;99.90;;;;;;5023892;28;20223;-88
2021/12/29 03:38:54;;;;;;;4.27;2.10;;;8.90;99.90;;;;;;5017239;28;20627;-87
2021/12/29 03:41:20;;;;;;;4.37;2.17;;;8.90;99.90;;;;;;5019721;28;20193;-89
2021/12/29 03:43:47;;;;;;;5.67;1.93;;;8.90;99.90;;;;;;5024791;28;20221;-89
2021/12/29 03:46:13;;;;;;;6.17;1.87;;;9.00;99.90;;;;;;5027847;28;20207;-88
2021/12/29 03:48:41;;;;;;;4.87;2.23;;;8.90;99.90;;;;;;5026665;28;20272;-87
2021/12/29 03:51:08;;;;;;;6.53;2.63;;;8.90;99.90;;;;;;5025309;28;20564;-88
2021/12/29 03:53:35;;;;;;;4.07;2.10;;;8.90;99.90;;;;;;5027076;28;20193;-88
2021/12/29 03:56:02;;;;;;;6.30;1.90;;;8.90;99.90;;;;;;5032810;28;20212;-89
2021/12/29 03:58:28;;;;;;;5.60;2.70;;;9.00;99.90;;;;;;5033145;28;20181;-91
2021/12/29 04:01:01;;;;;;;7.47;2.20;;;9.00;99.90;;;;;;5049924;28;20169;-90
2021/12/29 04:03:27;;;;;;;4.60;2.10;;;9.00;99.90;;;;;;5022808;28;20182;-89
2021/12/29 04:05:53;;;;;;;4.10;2.30;;;9.00;99.90;;;;;;5031982;28;20568;-88
2021/12/29 04:08:19;;;;;;;4.87;2.30;;;9.00;99.90;;;;;;5046398;28;20219;-89
2021/12/29 04:10:44;;;;;;;4.37;2.27;;;8.90;99.90;;;;;;5048135;28;20216;-91
2021/12/29 04:13:10;;;;;;;5.57;2.20;;;9.00;99.90;;;;;;5032737;28;20190;-89
2021/12/29 04:15:37;;;;;;;2.57;1.37;;;9.00;99.90;;;;;;5032425;28;20224;-88
2021/12/29 04:18:14;;;;;;;2.47;1.33;;;9.00;99.90;;;;;;5033191;28;20187;-88
2021/12/29 04:20:57;;;;;;;4.03;1.80;;;9.00;99.90;;;;;;5020033;28;20766;-88
2021/12/29 04:23:34;;;;;;;2.87;1.50;;;8.90;99.90;;;;;;5036724;28;20185;-88
2021/12/29 04:26:03;;;;;;;4.33;1.90;;;9.00;99.90;;;;;;5039187;28;20674;-88
2021/12/29 04:28:30;;;;;;;4.53;1.60;;;9.00;99.90;;;;;;5036710;28;20204;-88
2021/12/29 04:31:05;;;;;;;3.50;1.90;;;9.00;99.90;;;;;;5038951;28;20181;-88
2021/12/29 04:33:31;;;;;;;3.77;1.80;;;8.90;99.90;;;;;;5037544;28;20235;-88
2021/12/29 04:35:57;;;;;;;6.57;1.90;;;8.90;99.90;;;;;;5035470;28;20213;-88
2021/12/29 04:38:24;;;;;;;3.83;1.80;;;8.90;99.90;;;;;;5036831;28;20737;-88
2021/12/29 04:40:52;;;;;;;3.67;2.00;;;8.80;99.90;;;;;;5028057;28;20210;-88
2021/12/29 04:43:19;;;;;;;3.33;1.90;;;8.80;99.90;;;;;;5034507;28;20692;-90
2021/12/29 04:45:46;;;;;;;5.20;1.97;;;8.80;99.90;;;;;;5039214;28;20185;-88
2021/12/29 04:48:13;;;;;;;3.13;1.90;;;8.80;99.90;;;;;;5038060;28;20185;-89
2021/12/29 04:51:04;;;;;;;4.27;2.57;;;8.80;99.90;;;;;;5038802;28;20205;-88
2021/12/29 04:53:30;;;;;;;4.53;2.40;;;8.80;99.90;;;;;;5031727;28;20197;-88
2021/12/29 04:55:56;;;;;;;5.33;2.30;;;8.80;99.90;;;;;;5034722;28;20239;-88
2021/12/29 04:58:23;;;;;;;7.13;2.60;;;8.80;99.90;;;;;;5030754;28;20193;-89
2021/12/29 05:00:51;;;;;;;4.33;2.43;;;8.80;99.90;;;;;;5034861;28;20212;-88
2021/12/29 05:03:17;;;;;;;10.30;2.57;;;8.70;99.90;;;;;;5036284;28;20193;-88
2021/12/29 05:08:28;;;;;;;6.23;2.70;;;8.70;99.90;;;;;;5038476;28;20194;-89
2021/12/29 05:10:59;;;;;;;6.77;2.60;;;8.70;99.90;;;;;;5037379;28;20279;-89
2021/12/29 05:13:27;;;;;;;3.57;2.00;;;8.70;99.90;;;;;;5038531;28;20380;-88
2021/12/29 05:15:55;;;;;;;7.63;3.00;;;8.70;99.90;;;;;;5037102;28;20264;-88
2021/12/29 05:18:22;;;;;;;8.00;2.70;;;8.70;99.90;;;;;;5039042;28;20276;-88
2021/12/29 05:20:47;;;;;;;8.73;3.17;;;8.70;99.90;;;;;;5027444;28;20189;-89
2021/12/29 05:23:13;;;;;;;9.30;3.27;;;8.60;99.90;;;;;;5022027;28;20188;-88
2021/12/29 05:25:39;;;;;;;8.90;2.93;;;8.70;99.90;;;;;;5035059;28;20193;-88
2021/12/29 05:28:06;;;;;;;8.30;3.07;;;8.60;99.90;;;;;;5031905;28;20196;-88
2021/12/29 05:30:32;;;;;;;11.57;2.93;;;8.70;99.90;;;;;;5028505;28;20675;-89
2021/12/29 05:32:58;;;;;;;5.83;2.70;;;8.70;99.90;;;;;;5025269;28;20200;-88
2021/12/29 05:35:24;;;;;;;9.27;3.03;;;8.70;99.90;;;;;;5033668;28;20213;-89
2021/12/29 05:37:50;;;;;;;7.17;2.60;;;8.70;99.90;;;;;;5036150;28;20243;-88
2021/12/29 05:40:16;;;;;;;8.13;2.57;;;8.70;99.90;;;;;;5034607;28;20235;-88
2021/12/29 05:42:44;;;;;;;8.80;2.70;;;8.60;99.90;;;;;;5033946;28;20193;-88
2021/12/29 05:45:13;;;;;;;6.03;2.73;;;8.70;99.90;;;;;;5030245;28;20189;-88
2021/12/29 05:47:40;;;;;;;5.43;2.50;;;8.70;99.90;;;;;;5032413;28;20675;-90
2021/12/29 05:50:08;;;;;;;10.87;3.53;;;8.70;99.90;;;;;;5027752;28;20676;-87
2021/12/29 05:52:34;;;;;;;5.13;2.57;;;8.70;99.90;;;;;;5031888;28;20208;-88
2021/12/29 05:55:00;;;;;;;6.90;2.60;;;8.80;99.90;;;;;;5035356;28;20231;-88
2021/12/29 05:57:26;;;;;;;6.43;2.40;;;8.70;99.90;;;;;;5037895;28;20193;-88
2021/12/29 05:59:51;;;;;;;6.67;2.80;;;8.70;99.90;;;;;;5030663;28;20276;-88
2021/12/29 06:02:17;;;;;;;6.80;2.27;;;8.80;99.90;;;;;;5026505;28;20188;-88
2021/12/29 06:04:43;;;;;;;8.67;2.27;;;8.70;99.90;;;;;;5030233;28;20288;-88
2021/12/29 06:07:09;;;;;;;7.43;2.67;;;8.70;99.90;;;;;;5031065;28;20194;-89
2021/12/29 06:09:34;;;;;;;6.50;2.50;;;8.70;99.90;;;;;;5031459;28;20292;-88
2021/12/29 06:12:00;;;;;;;5.87;2.37;;;8.90;99.90;;;;;;5032531;28;20645;-87
2021/12/29 06:14:26;;;;;;;4.20;2.30;;;9.00;99.90;;;;;;5032907;28;20200;-87
2021/12/29 06:16:52;;;;;;;6.70;2.53;;;9.00;99.90;;;;;;5030866;28;20248;-87
2021/12/29 06:19:17;;;;;;;4.40;2.30;;;9.00;99.90;;;;;;5029989;28;20244;-89
2021/12/29 06:21:43;;;;;;;5.67;2.50;;;9.00;99.90;;;;;;5026055;28;20672;-89
2021/12/29 06:24:09;;;;;;;6.73;2.47;;;9.00;99.90;;;;;;5046386;28;20191;-88
2021/12/29 06:26:35;;;;;;;5.40;2.23;;;9.00;99.90;;;;;;5032713;28;20284;-89
2021/12/29 06:29:01;;;;;;;8.53;2.70;;;9.10;99.90;;;;;;5055266;28;20213;-90
2021/12/29 06:31:27;;;;;;;6.77;2.80;;;9.00;99.90;;;;;;5046628;28;20192;-89
2021/12/29 06:33:53;;;;;;;6.00;2.13;;;9.00;99.90;;;;;;5034360;28;20255;-89
2021/12/29 06:36:19;;;;;;;5.10;2.20;;;8.90;99.90;;;;;;5033675;28;20217;-89
2021/12/29 06:38:45;;;;;;;5.20;2.37;;;8.90;99.90;;;;;;5034309;28;20251;-89
2021/12/29 06:41:10;;;;;;;5.73;2.30;;;8.90;99.90;;;;;;5029086;28;20225;-88
2021/12/29 06:43:37;;;;;;;5.87;2.07;;;8.90;99.90;;;;;;5031469;28;20204;-89
2021/12/29 06:46:03;;;;;;;3.73;1.97;;;8.70;99.90;;;;;;5038602;28;20192;-90
2021/12/29 06:48:29;;;;;;;4.67;1.90;;;8.70;99.90;;;;;;5038710;28;20201;-88
2021/12/29 06:50:55;;;;;;;4.87;1.90;;;8.90;99.90;;;;;;5026855;28;20268;-89
2021/12/29 06:53:20;;;;;;;2.97;1.80;;;8.90;99.90;;;;;;5033838;28;20196;-90
2021/12/29 06:55:46;;;;;;;4.10;1.90;;;8.90;99.90;;;;;;5030930;28;20227;-92
2021/12/29 06:58:12;;;;;;;3.83;2.07;;;8.80;99.90;;;;;;5038928;28;20207;-88
2021/12/29 07:00:38;;;;;;;4.87;1.60;;;8.80;99.90;;;;;;5036652;28;20709;-88
2021/12/29 07:03:05;;;;;;;4.90;1.67;;;8.80;99.90;;;;;;5030404;28;20212;-89
2021/12/29 07:05:31;;;;;;;3.23;1.80;;;8.70;99.90;;;;;;5048658;28;20185;-88
2021/12/29 07:07:57;;;;;;;3.50;1.50;;;8.80;99.90;;;;;;5046198;28;20227;-89
2021/12/29 07:10:23;;;;;;;3.23;1.60;;;8.80;99.90;;;;;;5022170;28;20217;-88
2021/12/29 07:12:49;;;;;;;2.83;1.67;;;8.80;99.90;;;;;;5029668;28;20482;-89
2021/12/29 07:15:16;;;;;;;4.13;1.50;;;8.80;99.90;;;;;;5029272;28;20247;-89
2021/12/29 07:17:42;;;;;;;3.03;1.60;;;8.70;99.90;;;;;;5034904;28;20192;-88
2021/12/29 07:20:08;;;;;;;5.20;1.60;;;8.60;99.90;;;;;;5042417;28;20217;-89
2021/12/29 07:22:34;;;;;;;2.10;1.57;;;8.60;99.90;;;;;;5040962;28;20197;-89
2021/12/29 07:25:04;;;;;;;3.37;1.53;;;8.40;99.90;;;;;;5042632;28;20235;-88
2021/12/29 07:27:30;;;;;;;5.43;2.00;;;8.40;99.90;;;;;;5034209;28;20205;-89
2021/12/29 07:29:56;;;;;;;3.47;1.60;;;8.30;99.90;;;;;;5032873;28;20217;-89
2021/12/29 07:32:22;;;;;;;2.93;1.70;;;8.30;99.90;;;;;;5030128;28;20199;-90
2021/12/29 07:34:48;;;;;;;3.33;1.47;;;8.30;99.90;;;;;;5034143;28;20208;-89
2021/12/29 07:37:14;;;;;;;3.70;1.50;;;8.40;99.90;;;;;;5032445;28;20200;-88
2021/12/29 07:39:41;;;;;;;2.70;1.50;;;8.30;99.90;;;;;;5034576;28;20224;-89
2021/12/29 07:42:08;;;;;;;2.87;2.07;;;8.30;99.90;;;;;;5038266;28;20188;-89
2021/12/29 07:44:35;;;;;;;3.67;1.70;;;8.30;99.90;;;;;;5038140;28;20209;-89
2021/12/29 07:47:01;;;;;;;2.53;1.90;;;8.50;99.90;;;;;;5035591;28;20185;-89
2021/12/29 07:49:28;;;;;;;4.40;1.90;;;8.50;99.90;;;;;;5036549;28;20216;-87
2021/12/29 07:51:54;;;;;;;2.03;1.77;;;8.50;99.90;;;;;;5040632;28;20221;-88
2021/12/29 07:54:21;;;;;;;5.10;2.10;;;8.60;99.90;;;;;;5035127;28;20197;-89
2021/12/29 07:56:48;;;;;;;4.00;1.70;;;8.50;99.90;;;;;;5037253;28;20221;-87
2021/12/29 07:59:14;;;;;;;4.13;1.87;;;8.50;99.90;;;;;;5038141;28;20363;-88
2021/12/29 08:01:42;;;;;;;3.00;1.70;;;8.60;99.90;;;;;;5037116;28;20318;-88
2021/12/29 08:04:13;;;;;;;5.13;2.10;;;8.50;99.90;;;;;;5038889;28;20563;-89
2021/12/29 08:06:39;;;;;;;3.87;2.23;;;8.60;99.90;;;;;;5029450;28;20198;-87
2021/12/29 08:09:07;;;;;;;3.00;1.70;;;8.60;99.90;;;;;;5037019;28;20275;-88
2021/12/29 08:11:33;;;;;;;2.20;1.50;;;8.70;99.90;;;;;;5032724;28;20634;-88
2021/12/29 08:13:59;;;;;;;2.10;1.77;;;8.80;99.90;;;;;;5041045;28;20640;-88
2021/12/29 08:16:25;;;;;;;3.83;1.73;;;8.80;99.90;;;;;;5041794;28;20236;-90
2021/12/29 08:18:51;;;;;;;4.63;1.83;;;8.80;99.90;;;;;;5042018;28;20205;-88
2021/12/29 08:21:17;;;;;;;2.93;1.70;;;9.00;99.90;;;;;;5037799;28;20193;-86
2021/12/29 08:23:43;;;;;;;6.57;2.30;;;9.00;99.90;;;;;;5041650;28;20541;-86
2021/12/29 08:26:08;;;;;;;3.43;1.90;;;8.90;99.90;;;;;;5037748;28;20287;-87
2021/12/29 08:28:34;;;;;;;6.77;2.10;;;9.00;99.90;;;;;;5038434;28;20216;-88
2021/12/29 08:31:00;;;;;;;5.30;2.60;;;9.10;99.90;;;;;;5030747;28;20185;-87
2021/12/29 08:33:26;;;;;;;4.47;2.10;;;9.00;99.90;;;;;;5040073;28;20209;-86
2021/12/29 08:35:51;;;;;;;5.17;2.10;;;9.00;99.90;;;;;;5040545;28;20219;-87
2021/12/29 08:38:17;;;;;;;4.17;1.93;;;9.10;99.90;;;;;;5038067;28;20204;-91
2021/12/29 08:40:43;;;;;;;4.67;2.40;;;9.10;99.90;;;;;;5036875;28;20352;-89
2021/12/29 08:43:09;;;;;;;5.37;2.40;;;9.10;99.90;;;;;;5038266;28;20213;-88
2021/12/29 08:45:37;;;;;;;5.37;2.20;;;9.00;99.90;;;;;;5015533;28;20272;-87
2021/12/29 08:48:04;;;;;;;2.20;1.83;;;9.10;99.90;;;;;;5036550;28;20585;-87
2021/12/29 08:50:31;;;;;;;4.70;2.40;;;9.10;99.90;;;;;;5034431;28;20221;-88
2021/12/29 08:53:02;;;;;;;4.00;2.03;;;9.00;99.90;;;;;;5038613;28;20245;-88
2021/12/29 08:55:30;;;;;;;3.50;2.27;;;9.00;99.90;;;;;;5049232;28;20220;-88
2021/12/29 08:57:55;;;;;;;3.67;2.10;;;9.00;99.90;;;;;;5034551;28;20189;-87
2021/12/29 09:00:22;;;;;;;3.17;2.10;;;8.90;99.90;;;;;;5038771;28;20216;-87
2021/12/29 09:02:48;;;;;;;6.00;2.30;;;9.00;99.90;;;;;;5039150;28;20184;-87
2021/12/29 09:05:19;;;;;;;6.87;2.23;;;8.90;99.90;;;;;;5036422;28;20202;-87
2021/12/29 09:07:46;;;;;;;4.30;2.37;;;8.80;99.90;;;;;;5035889;28;20197;-87
2021/12/29 09:10:14;;;;;;;6.87;2.63;;;8.80;99.90;;;;;;5032622;28;20217;-89
2021/12/29 09:12:39;;;;;;;4.93;2.67;;;8.80;99.90;;;;;;5035900;28;20288;-87
2021/12/29 09:15:06;;;;;;;6.47;2.67;;;8.80;99.90;;;;;;5037387;28;20236;-87
2021/12/29 09:17:32;;;;;;;5.33;2.50;;;8.90;99.90;;;;;;5030265;28;20188;-89
2021/12/29 09:20:00;;;;;;;6.20;2.90;;;8.90;99.90;;;;;;5035734;28;20209;-88
2021/12/29 09:22:26;;;;;;;8.03;3.13;;;8.80;99.90;;;;;;5050088;28;20201;-87
2021/12/29 09:24:52;;;;;;;8.47;3.17;;;8.90;99.90;;;;;;5032555;28;20718;-87
2021/12/29 09:27:17;;;;;;;5.93;3.33;;;8.90;99.90;;;;;;5027787;28;20206;-87
2021/12/29 09:29:44;;;;;;;7.90;2.83;;;9.00;99.90;;;;;;5018705;28;20205;-87
2021/12/29 09:32:10;;;;;;;6.47;3.20;;;9.10;99.90;;;;;;5049829;28;20268;-90
2021/12/29 09:34:36;;;;;;;8.13;4.03;;;9.10;99.90;;;;;;5048072;28;20189;-88
2021/12/29 09:37:03;;;;;;;8.47;2.87;;;9.10;99.90;;;;;;5033669;28;20228;-88
2021/12/29 09:39:29;;;;;;;7.87;3.13;;;9.00;99.90;;;;;;5035314;28;20258;-89
2021/12/29 09:41:55;;;;;;;8.17;2.87;;;9.10;99.90;;;;;;5044267;28;20192;-89
2021/12/29 09:44:21;;;;;;;9.13;2.83;;;9.10;99.90;;;;;;5042548;28;20189;-89
2021/12/29 09:46:51;;;;;;;4.30;2.60;;;9.20;99.90;;;;;;5035300;28;20195;-88
2021/12/29 09:49:18;;;;;;;7.07;3.00;;;9.30;99.90;;;;;;5031362;28;20403;-88
2021/12/29 09:51:44;;;;;;;5.23;2.67;;;9.20;99.90;;;;;;5031463;28;20193;-88
2021/12/29 09:54:10;;;;;;;6.53;2.40;;;9.20;99.90;;;;;;5028026;28;20201;-88
2021/12/29 09:56:36;;;;;;;4.80;2.87;;;9.10;99.90;;;;;;5028981;28;20323;-88
2021/12/29 09:59:03;;;;;;;5.90;2.80;;;9.20;99.90;;;;;;5025036;28;20205;-89
2021/12/29 10:01:29;;;;;;;5.80;2.50;;;9.20;99.90;;;;;;5041504;28;20548;-88
2021/12/29 10:03:55;;;;;;;6.23;2.87;;;9.30;99.90;;;;;;5053021;28;20228;-89
2021/12/29 10:06:21;;;;;;;4.30;2.33;;;9.30;99.90;;;;;;5054174;28;20185;-88
2021/12/29 10:08:48;;;;;;;7.97;3.00;;;9.30;99.90;;;;;;5033258;28;20753;-88
2021/12/29 10:11:24;;;;;;;4.23;2.37;;;9.30;99.90;;;;;;5026972;28;20358;-88
2021/12/29 10:13:50;;;;;;;7.33;2.70;;;9.20;99.90;;;;;;5028958;28;20192;-88
2021/12/29 10:16:25;;;;;;;6.50;2.50;;;9.30;99.90;;;;;;5028445;28;20572;-88
2021/12/29 10:18:59;;;;;;;6.47;2.90;;;9.20;99.90;;;;;;5033437;28;20208;-89
2021/12/29 10:21:26;;;;;;;8.30;3.10;;;9.20;99.90;;;;;;5028920;28;20188;-88
2021/12/29 10:23:55;;;;;;;5.47;2.70;;;9.20;99.90;;;;;;5025856;28;20192;-88
2021/12/29 10:26:27;;;;;;;5.90;2.70;;;9.10;99.90;;;;;;5021520;28;20189;-88
2021/12/29 10:28:55;;;;;;;7.00;2.87;;;9.20;99.90;;;;;;5030752;28;20710;-88
2021/12/29 10:31:25;;;;;;;6.33;3.37;;;9.20;99.90;;;;;;5030003;28;20594;-89
2021/12/29 10:33:55;;;;;;;5.63;3.00;;;9.20;99.90;;;;;;5032190;28;20199;-89
2021/12/29 10:36:22;;;;;;;7.13;2.90;;;9.20;99.90;;;;;;5032467;28;20205;-85
2021/12/29 10:39:14;;;;;;;7.80;2.63;;;9.30;99.90;;;;;;5032107;28;20221;-84
2021/12/29 10:41:47;;;;;;;6.83;2.90;;;9.50;99.90;;;;;;5033525;28;20195;-84
2021/12/29 10:44:13;;;;;;;7.63;2.83;;;9.50;99.90;;;;;;5030383;28;20200;-87
2021/12/29 10:46:39;;;;;;;4.63;2.77;;;9.60;99.90;;;;;;5035202;28;20193;-88
2021/12/29 10:49:07;;;;;;;4.20;2.47;;;9.60;99.90;;;;;;5029143;28;20342;-88
2021/12/29 10:51:39;;;;;;;6.33;2.80;;;9.60;99.90;;;;;;5025900;28;20260;-89
2021/12/29 10:54:11;;;;;;;7.00;2.73;;;9.50;99.90;;;;;;5033897;28;20192;-87
2021/12/29 10:56:39;;;;;;;6.40;2.93;;;9.50;99.90;;;;;;5033011;28;20216;-88
2021/12/29 10:59:32;;;;;;;7.20;3.27;;;9.50;99.90;;;;;;5032844;28;20734;-88
2021/12/29 11:01:58;;;;;;;7.60;3.20;;;9.50;99.90;;;;;;5028631;28;20192;-88
2021/12/29 11:04:24;;;;;;;5.40;2.87;;;9.60;99.90;;;;;;5039029;28;20185;-88
2021/12/29 11:06:55;;;;;;;5.80;2.90;;;9.60;99.90;;;;;;5034641;28;20199;-88
2021/12/29 11:09:35;;;;;;;8.77;3.83;;;9.60;99.90;;;;;;5030099;28;20209;-88
2021/12/29 11:12:10;;;;;;;9.67;3.40;;;9.40;99.90;;;;;;5030056;28;20283;-87
2021/12/29 11:14:42;;;;;;;8.40;3.20;;;9.40;99.90;;;;;;5030334;28;20278;-87
2021/12/29 11:17:19;;;;;;;5.30;3.23;;;9.50;99.90;;;;;;5028093;28;20235;-88
2021/12/29 11:19:52;;;;;;;7.53;4.17;;;9.40;99.90;;;;;;5033101;28;20211;-88
2021/12/29 11:22:20;;;;;;;9.13;3.70;;;9.50;99.90;;;;;;5033688;28;20192;-88
2021/12/29 11:24:57;;;;;;;7.50;3.13;;;9.50;99.90;;;;;;5031968;28;20189;-89
2021/12/29 11:27:25;;;;;;;6.93;4.33;;;9.70;99.90;;;;;;5032549;28;20374;-88
2021/12/29 11:30:08;;;;;;;6.17;2.97;;;9.60;99.90;;;;;;5027458;28;20216;-88
2021/12/29 11:32:39;;;;;;;7.43;2.90;;;9.60;99.90;;;;;;5027482;28;20251;-88
2021/12/29 11:35:08;;;;;;;8.17;3.43;;;9.70;99.90;;;;;;5031465;28;20185;-88
2021/12/29 11:37:37;;;;;;;4.93;3.23;;;9.70;99.90;;;;;;5030051;28;20185;-88
2021/12/29 11:40:05;;;;;;;5.73;2.83;;;9.60;99.90;;;;;;5031199;28;20649;-88
2021/12/29 11:42:31;;;;;;;7.90;2.87;;;9.70;99.90;;;;;;5026437;28;20232;-88
2021/12/29 11:44:57;;;;;;;8.70;3.53;;;9.70;99.90;;;;;;5027203;28;20224;-88
2021/12/29 11:47:23;;;;;;;11.87;3.37;;;9.70;99.90;;;;;;5046217;28;20193;-88
2021/12/29 11:49:48;;;;;;;6.53;3.07;;;9.60;99.90;;;;;;5030897;28;20205;-88
2021/12/29 11:52:17;;;;;;;8.07;3.37;;;9.80;99.90;;;;;;5030154;28;20195;-88
2021/12/29 11:55:06;;;;;;;8.80;3.07;;;9.90;99.90;;;;;;5032186;28;20213;-88
2021/12/29 11:57:35;;;;;;;10.27;3.90;;;10.00;99.90;;;;;;5029362;28;20205;-88
2021/12/29 12:00:12;;;;;;;9.67;3.87;;;10.10;99.90;;;;;;5034036;28;20212;-88
2021/12/29 12:02:41;;;;;;;9.67;3.20;;;10.20;99.90;;;;;;5032406;28;20231;-87
2021/12/29 12:05:13;;;;;;;9.47;3.50;;;10.00;99.90;;;;;;5034692;28;20214;-88
2021/12/29 12:07:40;;;;;;;8.90;3.67;;;10.10;99.90;;;;;;5037861;28;20208;-88
2021/12/29 12:10:11;;;;;;;10.23;3.47;;;10.00;99.90;;;;;;5036581;28;20216;-88
2021/12/29 12:12:41;;;;;;;12.03;4.20;;;10.00;99.90;;;;;;5039260;28;20215;-88
2021/12/29 12:15:10;;;;;;;9.33;3.57;;;10.00;99.90;;;;;;5041380;28;20438;-88
2021/12/29 12:17:36;;;;;;;9.03;3.53;;;10.00;99.90;;;;;;5042963;28;20181;-90
2021/12/29 12:20:07;;;;;;;9.87;3.43;;;10.00;99.90;;;;;;5056279;28;20241;-89
2021/12/29 12:23:00;;;;;;;10.07;3.50;;;9.90;99.90;;;;;;5041255;28;20189;-88
2021/12/29 12:25:28;;;;;;;9.50;4.60;;;9.70;99.90;;;;;;5033650;28;20236;-88
2021/12/29 12:28:01;;;;;;;9.17;3.40;;;9.80;99.90;;;;;;5054038;28;20189;-89
2021/12/29 12:30:43;;;;;;;8.60;3.27;;;9.90;99.90;;;;;;5052104;28;20216;-88
2021/12/29 12:33:15;;;;;;;6.27;2.90;;;9.80;99.90;;;;;;5040747;28;21009;-88
2021/12/29 12:35:44;;;;;;;8.63;3.30;;;9.70;99.90;;;;;;5040605;28;20621;-88
2021/12/29 12:38:30;;;;;;;12.27;3.47;;;9.60;99.90;;;;;;5039192;28;20243;-88
2021/12/29 12:41:13;;;;;;;9.77;3.13;;;9.60;99.90;;;;;;5040194;28;20189;-87
2021/12/29 12:44:00;;;;;;;5.87;2.97;;;9.60;99.90;;;;;;5039313;28;21092;-86
2021/12/29 12:46:32;;;;;;;7.60;3.07;;;9.60;99.90;;;;;;5038504;28;20192;-84
2021/12/29 12:48:59;;;;;;;9.03;3.53;;;9.50;99.90;;;;;;5039028;28;20285;-86
2021/12/29 12:51:25;;;;;;;8.33;3.00;;;9.50;99.90;;;;;;5041015;28;20209;-86
2021/12/29 12:53:51;;;;;;;6.83;2.83;;;9.40;99.90;;;;;;5032118;28;20259;-87
2021/12/29 12:56:22;;;;;;;8.27;2.90;;;9.40;99.90;;;;;;5038044;28;20707;-88
2021/12/29 12:58:50;;;;;;;4.33;2.47;;;9.50;99.90;;;;;;5034197;28;20213;-87
2021/12/29 13:01:26;;;;;;;6.70;2.97;;;9.50;99.90;;;;;;5033958;28;20197;-86
2021/12/29 13:03:59;;;;;;;5.83;2.30;;;9.50;99.90;;;;;;5041050;28;20256;-87
2021/12/29 13:06:32;;;;;;;9.00;2.90;;;9.50;99.90;;;;;;5037978;28;20193;-86
2021/12/29 13:09:02;;;;;;;5.07;2.00;;;9.40;99.90;;;;;;5038081;28;20248;-88